Time;durP1;ratioP1;P1;durP2;ratioP2;P2;SDS_P1;SDS_P2;PMS_P1;PMS_P2;Temp;Humidity;BMP_temperature;BMP_pressure;BME280_temperature;BME280_humidity;BME280_pressure;Samples;Min_cycle;Max_cycle;Signal;HPM_P1;HPM_P2
2021/07/16 00:00:34;;;;;;;10.75;4.10;;;18.30;97.30;;;;;;4955498;28;20027;-78
2021/07/16 00:03:00;;;;;;;8.57;3.85;;;18.40;97.30;;;;;;4972477;28;20035;-78
2021/07/16 00:05:26;;;;;;;12.63;4.57;;;18.30;97.30;;;;;;4955907;28;20026;-79
2021/07/16 00:07:52;;;;;;;10.80;4.35;;;18.30;97.30;;;;;;4955081;28;20029;-80
2021/07/16 00:10:19;;;;;;;9.55;4.63;;;18.30;97.30;;;;;;4955535;28;20026;-79
2021/07/16 00:12:47;;;;;;;14.38;4.60;;;18.30;97.30;;;;;;4955805;28;20034;-79
2021/07/16 00:15:14;;;;;;;7.80;3.95;;;18.30;97.30;;;;;;4955488;28;20023;-79
2021/07/16 00:17:40;;;;;;;7.82;3.88;;;18.30;97.30;;;;;;4974438;28;20567;-79
2021/07/16 00:20:07;;;;;;;9.02;4.38;;;18.30;97.30;;;;;;4958332;28;20031;-79
2021/07/16 00:22:33;;;;;;;6.80;3.83;;;18.30;97.20;;;;;;4976388;28;20059;-79
2021/07/16 00:24:58;;;;;;;8.32;3.53;;;18.30;97.20;;;;;;4958477;28;20054;-79
2021/07/16 00:27:24;;;;;;;12.40;4.13;;;18.30;97.20;;;;;;4976264;28;20536;-80
2021/07/16 00:29:50;;;;;;;8.82;3.78;;;18.30;97.20;;;;;;4976264;28;20034;-79
2021/07/16 00:32:15;;;;;;;6.80;4.03;;;18.20;97.10;;;;;;4958209;28;20027;-79
2021/07/16 00:34:41;;;;;;;9.20;4.03;;;18.20;97.10;;;;;;4976315;28;20050;-79
2021/07/16 00:37:07;;;;;;;9.75;4.85;;;18.20;97.10;;;;;;4975184;28;20411;-79
2021/07/16 00:39:34;;;;;;;12.65;4.03;;;18.20;97.40;;;;;;4975793;28;20027;-79
2021/07/16 00:42:00;;;;;;;8.57;3.95;;;18.20;97.10;;;;;;4975087;28;20034;-79
2021/07/16 00:44:26;;;;;;;11.20;3.80;;;18.20;97.10;;;;;;4975614;28;20419;-79
2021/07/16 00:46:52;;;;;;;8.73;3.85;;;18.30;97.10;;;;;;4975998;28;20093;-79
2021/07/16 00:49:18;;;;;;;8.13;4.00;;;18.30;97.00;;;;;;4975780;28;20030;-79
2021/07/16 00:51:45;;;;;;;7.18;3.50;;;18.30;97.00;;;;;;4975722;28;20367;-79
2021/07/16 00:54:12;;;;;;;8.23;4.05;;;18.30;97.00;;;;;;4975299;28;20023;-79
2021/07/16 00:56:38;;;;;;;9.63;4.18;;;18.30;96.90;;;;;;4975457;28;20027;-79
2021/07/16 00:59:04;;;;;;;8.88;4.22;;;18.20;96.90;;;;;;4957740;28;20030;-79
2021/07/16 01:01:30;;;;;;;9.18;3.95;;;18.30;96.90;;;;;;4958413;28;20053;-79
2021/07/16 01:03:56;;;;;;;10.82;4.45;;;18.30;97.00;;;;;;4957664;28;20371;-80
2021/07/16 01:06:21;;;;;;;9.43;4.10;;;18.30;96.90;;;;;;4975601;28;20074;-79
2021/07/16 01:08:47;;;;;;;7.03;3.70;;;18.30;96.90;;;;;;4975350;28;20030;-79
2021/07/16 01:11:13;;;;;;;9.32;3.95;;;18.20;96.90;;;;;;4974649;28;20027;-79
2021/07/16 01:13:39;;;;;;;12.02;3.83;;;18.30;96.90;;;;;;4975542;28;20109;-79
2021/07/16 01:16:05;;;;;;;11.65;4.10;;;18.30;97.00;;;;;;4975101;28;20042;-79
2021/07/16 01:18:31;;;;;;;10.73;3.72;;;18.30;96.90;;;;;;4975091;28;20508;-78
2021/07/16 01:20:57;;;;;;;13.38;4.38;;;18.20;96.90;;;;;;4957046;28;20039;-79
2021/07/16 01:23:24;;;;;;;6.03;3.47;;;18.20;96.90;;;;;;4957992;28;20085;-79
2021/07/16 01:25:51;;;;;;;6.90;3.97;;;18.20;96.90;;;;;;4975247;28;20034;-79
2021/07/16 01:28:18;;;;;;;8.20;4.05;;;18.20;96.90;;;;;;4956874;28;20110;-79
2021/07/16 01:30:46;;;;;;;8.73;3.78;;;18.30;96.90;;;;;;4974782;28;20031;-79
2021/07/16 01:33:13;;;;;;;15.95;4.35;;;18.30;96.90;;;;;;4957155;28;20027;-79
2021/07/16 01:35:39;;;;;;;10.18;4.22;;;18.30;96.90;;;;;;4957641;28;20026;-79
2021/07/16 01:38:06;;;;;;;7.38;4.40;;;18.20;97.10;;;;;;4953649;29;20431;-79
2021/07/16 01:40:36;;;;;;;11.60;4.43;;;18.20;96.90;;;;;;4954302;29;20466;-79
2021/07/16 01:43:04;;;;;;;13.23;4.85;;;18.30;96.90;;;;;;4953881;29;20027;-79
2021/07/16 01:45:38;;;;;;;9.35;4.57;;;18.20;96.90;;;;;;4954118;29;20027;-79
2021/07/16 01:48:09;;;;;;;9.82;4.25;;;18.20;96.80;;;;;;4953726;29;20499;-79
2021/07/16 01:50:37;;;;;;;9.77;5.03;;;18.20;96.80;;;;;;4954196;29;20024;-79
2021/07/16 01:53:03;;;;;;;12.20;4.80;;;18.20;96.80;;;;;;4954570;29;20464;-79
2021/07/16 01:55:31;;;;;;;11.23;3.70;;;18.20;96.80;;;;;;4953963;29;20027;-79
2021/07/16 01:57:59;;;;;;;10.20;3.78;;;18.20;97.00;;;;;;4955506;29;20019;-78
2021/07/16 02:00:31;;;;;;;9.15;3.90;;;18.20;96.70;;;;;;4954947;29;20098;-78
2021/07/16 02:03:01;;;;;;;12.85;4.82;;;18.10;96.70;;;;;;4954866;29;20420;-78
2021/07/16 02:05:28;;;;;;;7.97;4.53;;;18.10;96.70;;;;;;4955129;29;20019;-78
2021/07/16 02:07:57;;;;;;;8.45;4.45;;;18.10;96.70;;;;;;4955043;29;20031;-78
2021/07/16 02:10:25;;;;;;;12.13;4.60;;;18.10;96.70;;;;;;4954353;29;20154;-80
2021/07/16 02:12:52;;;;;;;13.95;4.50;;;18.10;96.70;;;;;;4955108;29;20483;-78
2021/07/16 02:15:30;;;;;;;17.65;5.20;;;18.10;96.70;;;;;;4953082;29;20375;-79
2021/07/16 02:17:56;;;;;;;10.15;4.45;;;18.00;96.50;;;;;;4955009;29;20031;-79
2021/07/16 02:20:29;;;;;;;11.48;4.22;;;18.10;96.60;;;;;;4952913;29;20034;-79
2021/07/16 02:22:57;;;;;;;13.10;4.47;;;18.00;96.60;;;;;;4954706;29;20083;-79
2021/07/16 02:25:24;;;;;;;8.85;4.18;;;18.00;96.80;;;;;;4953955;29;20049;-79
2021/07/16 02:27:53;;;;;;;11.10;4.18;;;18.00;96.60;;;;;;4953397;29;20487;-79
2021/07/16 02:30:19;;;;;;;9.68;4.53;;;18.00;96.60;;;;;;4952955;29;20027;-79
2021/07/16 02:32:46;;;;;;;11.68;4.55;;;18.00;96.60;;;;;;4953434;29;20058;-79
2021/07/16 02:35:13;;;;;;;9.38;4.60;;;18.00;96.60;;;;;;4952772;29;20058;-79
2021/07/16 02:37:39;;;;;;;9.40;4.65;;;18.00;96.60;;;;;;4952988;29;20048;-79
2021/07/16 02:40:08;;;;;;;9.88;4.43;;;18.00;96.70;;;;;;4952962;28;20134;-79
2021/07/16 02:42:34;;;;;;;13.20;5.13;;;18.00;96.50;;;;;;4969281;28;20090;-79
2021/07/16 02:45:01;;;;;;;10.45;4.35;;;18.00;96.50;;;;;;4954263;29;20254;-79
2021/07/16 02:47:26;;;;;;;10.75;4.68;;;18.00;96.50;;;;;;4954552;29;20027;-79
2021/07/16 02:49:52;;;;;;;13.45;5.07;;;18.00;96.40;;;;;;4953238;29;20134;-78
2021/07/16 02:52:18;;;;;;;10.32;4.68;;;18.00;96.40;;;;;;4953641;29;20476;-78
2021/07/16 02:54:43;;;;;;;8.70;4.55;;;18.00;96.40;;;;;;4954406;29;20039;-78
2021/07/16 02:57:09;;;;;;;12.57;4.97;;;17.90;96.40;;;;;;4952516;29;20030;-78
2021/07/16 02:59:35;;;;;;;10.23;4.32;;;17.90;96.40;;;;;;4954196;29;20530;-78
2021/07/16 03:02:03;;;;;;;10.80;5.00;;;17.90;96.40;;;;;;4950797;29;20039;-78
2021/07/16 03:04:29;;;;;;;8.80;4.28;;;17.80;96.40;;;;;;4935041;29;20484;-78
2021/07/16 03:06:54;;;;;;;12.10;4.55;;;17.90;96.40;;;;;;4934619;29;20028;-78
2021/07/16 03:09:20;;;;;;;10.80;5.00;;;17.90;96.30;;;;;;4933228;29;20443;-78
2021/07/16 03:11:46;;;;;;;10.82;4.07;;;17.90;96.30;;;;;;4933733;29;20024;-78
2021/07/16 03:14:12;;;;;;;11.02;4.72;;;17.80;96.20;;;;;;4934454;29;20499;-78
2021/07/16 03:16:38;;;;;;;8.40;4.05;;;17.80;96.30;;;;;;4935213;29;20056;-78
2021/07/16 03:19:04;;;;;;;9.95;3.97;;;17.80;96.20;;;;;;4933062;29;20110;-82
2021/07/16 03:21:31;;;;;;;10.48;3.97;;;17.80;96.20;;;;;;4933684;29;20357;-78
2021/07/16 03:23:57;;;;;;;11.98;4.95;;;17.80;96.20;;;;;;4935151;29;20091;-78
2021/07/16 03:26:22;;;;;;;13.40;4.32;;;17.80;96.10;;;;;;4934206;29;20103;-78
2021/07/16 03:28:49;;;;;;;14.18;4.43;;;17.70;96.00;;;;;;4934950;29;20027;-78
2021/07/16 03:31:15;;;;;;;14.93;4.20;;;17.70;96.00;;;;;;4932856;29;20027;-78
2021/07/16 03:33:40;;;;;;;9.15;4.22;;;17.70;96.00;;;;;;4933551;29;20158;-78
2021/07/16 03:36:06;;;;;;;8.65;3.88;;;17.70;96.00;;;;;;4934171;29;20425;-77
2021/07/16 03:38:32;;;;;;;13.15;4.00;;;17.70;96.00;;;;;;4933454;29;20502;-78
2021/07/16 03:41:00;;;;;;;7.82;3.67;;;17.70;95.90;;;;;;4933499;29;20075;-78
2021/07/16 03:43:26;;;;;;;9.02;4.53;;;17.70;95.90;;;;;;4932817;29;20481;-78
2021/07/16 03:45:52;;;;;;;8.50;3.75;;;17.70;95.90;;;;;;4934633;29;20024;-78
2021/07/16 03:48:18;;;;;;;7.65;3.70;;;17.70;95.90;;;;;;4934000;29;20020;-78
2021/07/16 03:50:47;;;;;;;8.70;3.95;;;17.70;95.90;;;;;;4935283;29;20066;-78
2021/07/16 03:53:13;;;;;;;10.40;4.13;;;17.70;95.90;;;;;;4936446;29;20023;-79
2021/07/16 03:55:40;;;;;;;11.10;4.28;;;17.70;95.90;;;;;;4937070;29;20122;-79
2021/07/16 03:58:06;;;;;;;10.43;4.10;;;17.70;95.80;;;;;;4936766;29;20121;-83
2021/07/16 04:00:32;;;;;;;7.32;3.75;;;17.70;95.80;;;;;;4938122;29;20468;-79
2021/07/16 04:03:00;;;;;;;13.50;4.10;;;17.70;95.80;;;;;;4936941;29;20484;-79
2021/07/16 04:05:27;;;;;;;11.90;4.00;;;17.70;95.70;;;;;;4937511;29;20101;-79
2021/07/16 04:08:01;;;;;;;9.30;3.75;;;17.70;95.70;;;;;;4936861;29;20028;-79
2021/07/16 04:10:26;;;;;;;10.98;4.03;;;17.70;95.70;;;;;;4936265;29;20616;-79
2021/07/16 04:13:01;;;;;;;6.55;3.63;;;17.70;95.70;;;;;;4938287;29;20488;-79
2021/07/16 04:15:27;;;;;;;9.82;4.28;;;17.60;95.60;;;;;;4936147;29;20560;-79
2021/07/16 04:17:54;;;;;;;8.15;3.10;;;17.60;95.60;;;;;;4938017;29;20051;-78
2021/07/16 04:20:20;;;;;;;11.63;4.28;;;17.60;95.60;;;;;;4937326;29;20072;-79
2021/07/16 04:22:45;;;;;;;9.68;3.45;;;17.60;95.50;;;;;;4937836;29;20078;-79
2021/07/16 04:25:16;;;;;;;8.15;4.15;;;17.70;95.50;;;;;;4936156;29;20023;-80
2021/07/16 04:27:42;;;;;;;12.30;3.80;;;17.60;95.50;;;;;;4937844;29;20026;-79
2021/07/16 04:30:11;;;;;;;9.98;3.30;;;17.60;95.40;;;;;;4930914;29;20047;-78
2021/07/16 04:32:40;;;;;;;11.40;3.85;;;17.60;95.40;;;;;;4922410;29;20075;-79
2021/07/16 04:35:07;;;;;;;8.63;3.67;;;17.60;95.40;;;;;;4924742;29;20034;-80
2021/07/16 04:37:34;;;;;;;9.68;3.92;;;17.60;95.40;;;;;;4930393;29;20062;-79
2021/07/16 04:40:01;;;;;;;8.40;3.90;;;17.70;95.30;;;;;;4928731;29;20028;-79
2021/07/16 04:42:27;;;;;;;9.80;3.75;;;17.70;95.30;;;;;;4933810;29;20341;-79
2021/07/16 04:44:54;;;;;;;9.43;3.70;;;17.70;95.30;;;;;;4936187;29;20040;-79
2021/07/16 04:47:19;;;;;;;12.90;4.05;;;17.70;95.20;;;;;;4933753;29;20143;-80
2021/07/16 04:49:45;;;;;;;7.80;3.70;;;17.70;95.20;;;;;;4928121;29;20107;-79
2021/07/16 04:52:11;;;;;;;14.45;5.07;;;17.70;95.20;;;;;;4917876;29;20369;-80
2021/07/16 04:54:37;;;;;;;8.38;3.58;;;17.80;95.10;;;;;;4916895;29;20024;-79
2021/07/16 04:57:03;;;;;;;9.68;3.45;;;17.80;95.10;;;;;;4932635;29;20024;-80
2021/07/16 04:59:28;;;;;;;10.90;4.00;;;17.80;95.10;;;;;;4917440;29;20036;-79
2021/07/16 05:01:54;;;;;;;8.73;3.45;;;17.80;95.10;;;;;;4918101;29;20112;-79
2021/07/16 05:04:20;;;;;;;8.25;2.83;;;17.80;95.00;;;;;;4916847;29;20465;-79
2021/07/16 05:06:45;;;;;;;9.98;3.42;;;17.80;95.00;;;;;;4916843;29;20032;-79
2021/07/16 05:09:11;;;;;;;7.75;3.05;;;17.80;94.90;;;;;;4917531;29;20024;-80
2021/07/16 05:11:37;;;;;;;9.80;3.60;;;17.80;94.90;;;;;;4918317;29;20024;-79
2021/07/16 05:14:03;;;;;;;8.05;3.67;;;17.80;94.90;;;;;;4932661;29;20028;-80
2021/07/16 05:16:29;;;;;;;13.60;3.13;;;17.80;94.90;;;;;;4917494;29;20056;-79
2021/07/16 05:18:54;;;;;;;11.15;3.33;;;17.80;94.80;;;;;;4916788;29;20123;-79
2021/07/16 05:21:20;;;;;;;11.75;3.58;;;17.80;94.70;;;;;;4915882;29;20079;-79
2021/07/16 05:23:46;;;;;;;9.95;3.20;;;17.80;94.70;;;;;;4916917;29;20506;-79
2021/07/16 05:26:12;;;;;;;8.35;3.10;;;17.90;94.70;;;;;;4916200;29;20532;-84
2021/07/16 05:28:38;;;;;;;8.90;2.53;;;17.80;94.60;;;;;;4918025;29;20156;-80
2021/07/16 05:31:04;;;;;;;11.60;3.50;;;17.90;94.60;;;;;;4916511;29;20238;-79
2021/07/16 05:33:29;;;;;;;6.82;3.00;;;17.90;94.60;;;;;;4915885;29;20039;-79
2021/07/16 05:35:55;;;;;;;7.40;3.60;;;17.90;94.50;;;;;;4931960;29;20024;-79
2021/07/16 05:38:22;;;;;;;7.95;2.85;;;17.90;94.50;;;;;;4934507;29;20055;-79
2021/07/16 05:40:48;;;;;;;10.65;2.78;;;17.90;94.50;;;;;;4918931;29;20183;-79
2021/07/16 05:43:15;;;;;;;7.68;2.80;;;18.00;94.40;;;;;;4935868;29;20101;-78
2021/07/16 05:45:42;;;;;;;9.48;2.90;;;18.00;94.40;;;;;;4936296;29;20051;-79
2021/07/16 05:48:11;;;;;;;10.25;3.15;;;18.00;94.30;;;;;;4936222;29;20066;-79
2021/07/16 05:50:38;;;;;;;8.38;3.10;;;18.10;94.20;;;;;;4918183;29;20028;-78
2021/07/16 05:53:04;;;;;;;12.30;3.13;;;18.10;94.10;;;;;;4921275;29;20024;-78
2021/07/16 05:55:30;;;;;;;8.25;3.20;;;18.20;94.00;;;;;;4935555;29;20079;-78
2021/07/16 05:57:56;;;;;;;7.15;2.50;;;18.20;94.00;;;;;;4935952;29;20038;-78
2021/07/16 06:00:22;;;;;;;10.77;3.25;;;18.30;93.80;;;;;;4918199;29;20360;-78
2021/07/16 06:02:48;;;;;;;9.43;3.08;;;18.40;93.70;;;;;;4918847;29;20031;-78
2021/07/16 06:05:14;;;;;;;8.77;3.03;;;18.40;93.70;;;;;;4935970;29;20030;-78
2021/07/16 06:07:40;;;;;;;7.82;2.88;;;18.50;93.50;;;;;;4918370;29;20028;-78
2021/07/16 06:10:07;;;;;;;8.07;2.83;;;18.60;93.50;;;;;;4918633;29;20464;-79
2021/07/16 06:12:33;;;;;;;13.18;3.47;;;18.60;93.40;;;;;;4935129;29;20070;-78
2021/07/16 06:14:58;;;;;;;12.95;3.20;;;18.70;93.30;;;;;;4918506;29;20032;-79
2021/07/16 06:17:25;;;;;;;6.18;2.63;;;18.70;93.20;;;;;;4918057;29;20135;-79
2021/07/16 06:19:51;;;;;;;6.40;2.60;;;18.60;93.20;;;;;;4935561;29;20169;-78
2021/07/16 06:22:17;;;;;;;7.75;2.75;;;18.60;93.30;;;;;;4935179;29;20500;-79
2021/07/16 06:24:43;;;;;;;11.10;3.17;;;18.70;93.30;;;;;;4935262;29;20051;-79
2021/07/16 06:27:09;;;;;;;9.98;2.72;;;18.70;93.20;;;;;;4918328;29;20480;-79
2021/07/16 06:29:35;;;;;;;6.97;3.03;;;18.60;93.20;;;;;;4917690;29;20059;-79
2021/07/16 06:32:00;;;;;;;4.60;2.55;;;18.60;93.20;;;;;;4918204;29;20038;-78
2021/07/16 06:34:26;;;;;;;12.85;5.22;;;18.50;93.20;;;;;;4934310;29;20032;-78
2021/07/16 06:36:52;;;;;;;7.50;2.70;;;18.50;93.20;;;;;;4917706;29;20075;-78
2021/07/16 06:39:17;;;;;;;6.43;2.60;;;18.50;93.20;;;;;;4933230;29;20020;-81
2021/07/16 06:41:43;;;;;;;5.45;2.47;;;18.50;93.20;;;;;;4935147;29;20059;-79
2021/07/16 06:44:10;;;;;;;7.50;2.67;;;18.50;93.10;;;;;;4918085;29;20047;-79
2021/07/16 06:46:36;;;;;;;13.60;3.33;;;18.50;93.00;;;;;;4934439;29;20020;-79
2021/07/16 06:49:03;;;;;;;14.07;3.20;;;18.50;93.00;;;;;;4934771;29;20031;-78
2021/07/16 06:51:30;;;;;;;12.25;2.67;;;18.60;92.90;;;;;;4917008;29;20032;-79
2021/07/16 06:53:57;;;;;;;4.88;2.22;;;18.60;92.80;;;;;;4917886;29;20027;-79
2021/07/16 06:56:23;;;;;;;9.55;2.60;;;18.70;92.80;;;;;;4934366;29;20020;-80
2021/07/16 06:58:51;;;;;;;5.28;2.25;;;18.80;92.60;;;;;;4918202;29;20023;-79
2021/07/16 07:01:18;;;;;;;11.70;2.80;;;18.80;92.50;;;;;;4934979;29;20032;-78
2021/07/16 07:03:44;;;;;;;8.82;2.83;;;18.80;92.40;;;;;;4934367;29;20031;-79
2021/07/16 07:06:09;;;;;;;8.90;2.65;;;18.90;92.40;;;;;;4934563;29;20059;-79
2021/07/16 07:08:35;;;;;;;9.60;2.97;;;18.80;92.40;;;;;;4917168;29;20028;-79
2021/07/16 07:11:01;;;;;;;6.47;2.63;;;18.80;92.30;;;;;;4934788;29;20032;-79
2021/07/16 07:13:27;;;;;;;6.40;2.67;;;18.80;92.30;;;;;;4917010;29;20060;-79
2021/07/16 07:15:53;;;;;;;9.82;2.58;;;18.80;92.30;;;;;;4934724;29;20023;-79
2021/07/16 07:18:18;;;;;;;6.00;3.28;;;18.80;92.30;;;;;;4934772;29;20329;-79
2021/07/16 07:20:45;;;;;;;8.68;2.60;;;18.80;92.30;;;;;;4933772;29;20035;-79
2021/07/16 07:23:10;;;;;;;6.57;2.30;;;18.80;92.20;;;;;;4934907;29;20036;-79
2021/07/16 07:25:36;;;;;;;13.80;2.60;;;18.90;92.20;;;;;;4918392;29;20034;-79
2021/07/16 07:28:02;;;;;;;9.82;2.45;;;18.90;92.10;;;;;;4923880;29;20020;-80
2021/07/16 07:30:28;;;;;;;7.85;2.70;;;18.80;92.10;;;;;;4940190;29;20111;-79
2021/07/16 07:32:54;;;;;;;7.07;2.45;;;18.90;92.20;;;;;;4923922;29;20102;-79
2021/07/16 07:35:20;;;;;;;8.77;2.78;;;18.80;92.10;;;;;;4940568;29;20102;-79
2021/07/16 07:37:45;;;;;;;5.22;2.58;;;18.80;92.10;;;;;;4922894;29;20052;-79
2021/07/16 07:40:15;;;;;;;9.77;2.83;;;18.90;92.00;;;;;;4940866;29;20032;-79
2021/07/16 07:42:43;;;;;;;7.30;2.47;;;18.90;92.00;;;;;;4923205;29;20086;-79
2021/07/16 07:45:10;;;;;;;9.80;3.70;;;18.90;92.00;;;;;;4941079;29;20027;-79
2021/07/16 07:47:36;;;;;;;10.73;3.55;;;18.90;91.90;;;;;;4940322;29;20024;-79
2021/07/16 07:50:05;;;;;;;11.50;3.03;;;18.90;91.80;;;;;;4923599;29;20050;-79
2021/07/16 07:52:31;;;;;;;15.32;3.22;;;18.90;91.80;;;;;;4940192;29;20059;-79
2021/07/16 07:54:57;;;;;;;12.27;2.83;;;18.90;91.80;;;;;;4940951;29;20066;-78
2021/07/16 07:57:23;;;;;;;10.70;2.95;;;18.90;91.80;;;;;;4940160;29;20035;-82
2021/07/16 07:59:48;;;;;;;8.85;2.90;;;18.90;91.70;;;;;;4940662;29;20035;-79
2021/07/16 08:02:14;;;;;;;8.75;2.47;;;18.90;91.70;;;;;;4923528;29;20111;-79
2021/07/16 08:04:41;;;;;;;5.68;2.63;;;19.00;91.60;;;;;;4940236;29;20464;-79
2021/07/16 08:07:06;;;;;;;6.07;2.50;;;19.00;91.50;;;;;;4923573;29;20058;-79
2021/07/16 08:09:32;;;;;;;9.52;2.40;;;19.00;91.50;;;;;;4922989;29;20063;-79
2021/07/16 08:12:00;;;;;;;11.20;2.72;;;19.10;91.50;;;;;;4939420;29;20460;-79
2021/07/16 08:14:25;;;;;;;9.35;2.88;;;19.10;91.40;;;;;;4922934;29;20070;-80
2021/07/16 08:16:51;;;;;;;8.10;2.45;;;19.10;91.30;;;;;;4923605;29;20063;-79
2021/07/16 08:19:17;;;;;;;8.07;2.60;;;19.20;91.20;;;;;;4923446;29;20066;-79
2021/07/16 08:21:52;;;;;;;10.57;2.83;;;19.20;91.10;;;;;;4922767;29;20028;-79
2021/07/16 08:24:19;;;;;;;6.82;2.72;;;19.30;91.00;;;;;;4923422;29;20031;-79
2021/07/16 08:26:46;;;;;;;8.60;2.70;;;19.30;91.00;;;;;;4922626;29;20610;-79
2021/07/16 08:29:13;;;;;;;8.18;2.55;;;19.40;90.80;;;;;;4940394;29;20464;-79
2021/07/16 08:31:40;;;;;;;11.02;2.80;;;19.50;90.60;;;;;;4939463;29;20130;-79
2021/07/16 08:34:07;;;;;;;8.90;2.53;;;19.70;90.60;;;;;;4923340;29;20030;-79
2021/07/16 08:36:33;;;;;;;9.50;2.75;;;19.80;90.30;;;;;;4922342;29;20046;-79
2021/07/16 08:38:58;;;;;;;11.35;2.70;;;19.90;90.20;;;;;;4936221;29;20079;-79
2021/07/16 08:41:25;;;;;;;8.23;2.50;;;20.00;90.00;;;;;;4937208;29;20035;-79
2021/07/16 08:43:51;;;;;;;7.80;2.35;;;20.20;89.80;;;;;;4936845;29;20024;-79
2021/07/16 08:46:18;;;;;;;8.85;2.92;;;20.20;89.20;;;;;;4937283;29;20056;-79
2021/07/16 08:48:47;;;;;;;9.10;2.70;;;20.30;89.00;;;;;;4936569;29;20110;-79
2021/07/16 08:51:18;;;;;;;8.50;3.08;;;20.30;88.60;;;;;;4919969;29;20114;-79
2021/07/16 08:53:46;;;;;;;14.48;3.42;;;20.40;88.40;;;;;;4936642;29;20074;-79
2021/07/16 08:56:12;;;;;;;8.30;2.65;;;20.40;88.20;;;;;;4937086;29;20103;-78
2021/07/16 08:58:38;;;;;;;7.53;2.53;;;20.40;88.10;;;;;;4919499;29;20118;-79
2021/07/16 09:01:03;;;;;;;12.48;3.20;;;20.40;88.20;;;;;;4936903;29;20111;-78
2021/07/16 09:03:30;;;;;;;6.13;2.35;;;20.50;88.10;;;;;;4936045;29;20540;-79
2021/07/16 09:05:55;;;;;;;8.52;3.00;;;20.50;87.60;;;;;;4919482;29;20603;-80
2021/07/16 09:08:22;;;;;;;10.40;2.85;;;20.50;87.40;;;;;;4919743;29;20126;-77
2021/07/16 09:10:50;;;;;;;11.50;3.05;;;20.40;87.20;;;;;;4919225;29;20498;-78
2021/07/16 09:13:16;;;;;;;9.88;2.88;;;20.40;87.10;;;;;;4936705;29;20457;-78
2021/07/16 09:15:53;;;;;;;10.77;3.30;;;20.40;87.00;;;;;;4935990;29;20152;-78
2021/07/16 09:18:24;;;;;;;9.48;2.97;;;20.50;86.70;;;;;;4936699;29;20024;-78
2021/07/16 09:21:03;;;;;;;10.30;2.75;;;20.50;86.70;;;;;;4936038;29;20032;-78
2021/07/16 09:23:44;;;;;;;6.38;2.13;;;20.50;86.80;;;;;;4919338;29;20035;-83
2021/07/16 09:26:13;;;;;;;9.82;2.47;;;20.50;86.80;;;;;;4936615;29;20031;-78
2021/07/16 09:28:46;;;;;;;10.85;2.85;;;20.50;86.80;;;;;;4918727;29;20024;-78
2021/07/16 09:31:14;;;;;;;8.07;3.08;;;20.50;86.80;;;;;;4919276;29;20024;-78
2021/07/16 09:33:49;;;;;;;8.07;2.63;;;20.50;86.90;;;;;;4918991;29;20357;-79
2021/07/16 09:36:22;;;;;;;8.75;2.85;;;20.40;86.90;;;;;;4919278;29;20495;-79
2021/07/16 09:39:18;;;;;;;8.02;3.22;;;20.40;87.30;;;;;;4918446;29;20048;-79
2021/07/16 09:41:55;;;;;;;6.05;2.30;;;20.20;87.60;;;;;;4916849;29;20106;-79
2021/07/16 09:44:32;;;;;;;7.88;3.22;;;20.10;88.10;;;;;;4919174;29;20023;-79
2021/07/16 09:47:18;;;;;;;9.93;3.03;;;20.00;88.10;;;;;;4919126;29;20043;-79
2021/07/16 09:49:50;;;;;;;11.63;3.00;;;19.90;88.30;;;;;;4935192;29;20023;-78
2021/07/16 09:52:20;;;;;;;9.43;3.22;;;19.90;88.50;;;;;;4919029;29;20020;-79
2021/07/16 09:55:05;;;;;;;8.75;2.92;;;19.80;88.50;;;;;;4934160;29;20027;-79
2021/07/16 09:57:41;;;;;;;6.45;2.83;;;19.90;89.10;;;;;;4918343;29;20349;-81
2021/07/16 10:00:27;;;;;;;7.55;3.30;;;19.80;89.10;;;;;;4935893;29;20484;-79
2021/07/16 10:02:55;;;;;;;9.68;4.45;;;19.80;89.10;;;;;;4918234;29;20468;-78
2021/07/16 10:05:21;;;;;;;8.13;3.33;;;19.70;89.10;;;;;;4918798;29;20028;-78
2021/07/16 10:07:47;;;;;;;10.98;3.58;;;19.70;89.30;;;;;;4918032;29;20127;-78
2021/07/16 10:10:20;;;;;;;6.80;3.03;;;19.60;89.50;;;;;;4935759;29;20107;-78
2021/07/16 10:12:47;;;;;;;18.85;4.35;;;19.60;89.60;;;;;;4917898;29;20027;-77
2021/07/16 10:15:15;;;;;;;7.15;3.38;;;19.50;89.60;;;;;;4935354;29;20030;-77
2021/07/16 10:17:41;;;;;;;7.97;2.58;;;19.50;89.70;;;;;;4933615;29;20468;-78
2021/07/16 10:20:11;;;;;;;10.50;3.42;;;19.50;89.70;;;;;;4935591;29;20032;-78
2021/07/16 10:22:38;;;;;;;6.95;2.67;;;19.50;89.70;;;;;;4934890;29;20384;-78
2021/07/16 10:25:09;;;;;;;10.20;3.00;;;19.50;89.90;;;;;;4918437;29;20027;-78
2021/07/16 10:27:35;;;;;;;5.07;2.40;;;19.60;90.00;;;;;;4934870;29;20147;-79
2021/07/16 10:30:10;;;;;;;8.70;3.30;;;19.50;90.00;;;;;;4935052;29;20111;-78
2021/07/16 10:32:43;;;;;;;10.73;3.17;;;19.40;90.30;;;;;;4934696;29;20031;-79
2021/07/16 10:35:25;;;;;;;12.07;3.33;;;19.30;90.50;;;;;;4935342;29;20028;-77
2021/07/16 10:37:55;;;;;;;11.75;3.20;;;19.10;90.80;;;;;;4914369;29;20051;-78
2021/07/16 10:40:44;;;;;;;13.65;3.00;;;19.00;91.00;;;;;;4914848;29;20433;-78
2021/07/16 10:43:32;;;;;;;8.48;3.80;;;19.00;91.10;;;;;;4916297;29;20066;-78
2021/07/16 10:46:00;;;;;;;8.38;3.45;;;18.90;91.30;;;;;;4915349;29;20032;-79
2021/07/16 10:48:38;;;;;;;11.00;3.22;;;18.90;91.30;;;;;;4915925;29;20389;-78
2021/07/16 10:51:05;;;;;;;14.93;4.40;;;19.00;91.40;;;;;;4915011;29;20028;-78
2021/07/16 10:53:31;;;;;;;12.20;3.65;;;19.10;91.40;;;;;;4916125;29;20111;-78
2021/07/16 10:55:57;;;;;;;12.88;3.92;;;19.30;91.30;;;;;;4914275;29;20443;-78
2021/07/16 10:58:24;;;;;;;9.77;3.50;;;19.40;91.10;;;;;;4915683;29;20516;-78
2021/07/16 11:00:51;;;;;;;8.93;3.05;;;19.50;90.90;;;;;;4913416;29;20024;-78
2021/07/16 11:03:19;;;;;;;11.77;3.28;;;19.60;90.80;;;;;;4914717;29;20028;-78
2021/07/16 11:05:47;;;;;;;7.45;3.13;;;19.70;90.70;;;;;;4915473;29;20056;-79
2021/07/16 11:08:35;;;;;;;11.95;3.55;;;19.70;90.60;;;;;;4914859;29;20398;-78
2021/07/16 11:11:16;;;;;;;11.60;3.70;;;19.70;90.70;;;;;;4915275;29;20044;-79
2021/07/16 11:13:59;;;;;;;10.07;3.60;;;19.70;90.70;;;;;;4913983;29;20071;-79
2021/07/16 11:16:26;;;;;;;9.82;3.25;;;19.60;90.70;;;;;;4915827;29;20022;-79
2021/07/16 11:18:53;;;;;;;12.32;3.60;;;19.60;90.70;;;;;;4915150;29;20024;-79
2021/07/16 11:21:42;;;;;;;5.63;2.50;;;19.70;90.80;;;;;;4914281;29;20051;-78
2021/07/16 11:24:22;;;;;;;13.07;3.83;;;19.80;90.80;;;;;;4907568;29;20123;-79
2021/07/16 11:26:55;;;;;;;10.35;3.30;;;19.90;90.50;;;;;;4913745;29;20492;-78
2021/07/16 11:29:23;;;;;;;9.02;3.20;;;20.00;90.40;;;;;;4915711;29;20114;-78
2021/07/16 11:32:00;;;;;;;8.80;3.20;;;20.10;90.30;;;;;;4913704;29;20111;-78
2021/07/16 11:34:25;;;;;;;9.98;3.45;;;20.10;90.10;;;;;;4915615;29;20103;-78
2021/07/16 11:36:53;;;;;;;14.35;3.42;;;20.10;90.10;;;;;;4913514;29;20140;-79
2021/07/16 11:39:31;;;;;;;9.20;3.05;;;20.10;90.20;;;;;;4915285;29;20031;-78
2021/07/16 11:41:58;;;;;;;8.40;3.00;;;20.10;90.30;;;;;;4913558;29;20079;-78
2021/07/16 11:44:32;;;;;;;11.27;3.58;;;20.20;90.30;;;;;;4915531;29;20461;-78
2021/07/16 11:46:59;;;;;;;6.25;2.88;;;20.20;90.10;;;;;;4913852;29;20020;-78
2021/07/16 11:49:29;;;;;;;8.40;3.70;;;20.20;90.10;;;;;;4914174;29;20024;-78
2021/07/16 11:52:02;;;;;;;10.30;2.80;;;20.30;89.90;;;;;;4913774;29;20020;-79
2021/07/16 11:54:31;;;;;;;10.95;3.75;;;20.40;89.30;;;;;;4915711;29;20043;-79
2021/07/16 11:57:00;;;;;;;6.82;2.97;;;20.60;89.20;;;;;;4915139;29;20021;-78
2021/07/16 11:59:27;;;;;;;10.85;3.78;;;20.80;88.60;;;;;;4915564;29;20016;-78
2021/07/16 12:02:10;;;;;;;7.07;3.08;;;20.90;88.00;;;;;;4913694;29;20083;-78
2021/07/16 12:04:37;;;;;;;9.45;3.38;;;21.20;87.40;;;;;;4914125;29;20059;-78
2021/07/16 12:07:04;;;;;;;8.55;3.40;;;21.30;87.00;;;;;;4914846;29;20099;-78
2021/07/16 12:09:38;;;;;;;9.20;3.20;;;21.50;86.70;;;;;;4914176;29;20161;-78
2021/07/16 12:12:08;;;;;;;11.45;3.97;;;21.60;86.00;;;;;;4914538;29;20028;-79
2021/07/16 12:14:49;;;;;;;7.65;3.00;;;21.60;85.90;;;;;;4917688;29;20063;-79
2021/07/16 12:17:18;;;;;;;6.63;2.88;;;21.60;85.90;;;;;;4919175;29;20111;-79
2021/07/16 12:19:44;;;;;;;7.82;3.08;;;21.50;86.40;;;;;;4917773;29;20458;-79
2021/07/16 12:22:11;;;;;;;9.48;3.38;;;21.40;86.80;;;;;;4918654;29;20082;-78
2021/07/16 12:24:39;;;;;;;12.10;3.28;;;21.30;87.10;;;;;;4918618;29;20031;-79
2021/07/16 12:27:09;;;;;;;8.38;3.10;;;21.20;87.30;;;;;;4918440;29;20024;-79
2021/07/16 12:29:35;;;;;;;8.70;3.50;;;21.10;87.60;;;;;;4918857;29;20024;-78
2021/07/16 12:32:01;;;;;;;9.05;3.28;;;21.00;87.90;;;;;;4916691;29;20056;-79
2021/07/16 12:34:27;;;;;;;9.32;3.60;;;21.00;87.90;;;;;;4918674;29;20115;-79
2021/07/16 12:37:16;;;;;;;9.30;3.40;;;21.00;88.00;;;;;;4916392;29;20048;-79
2021/07/16 12:39:45;;;;;;;8.68;3.67;;;21.10;87.60;;;;;;4917041;29;20035;-82
2021/07/16 12:42:13;;;;;;;14.13;3.75;;;21.20;87.50;;;;;;4917241;29;20028;-79
2021/07/16 12:44:39;;;;;;;6.72;2.83;;;21.20;87.60;;;;;;4917132;29;20021;-78
2021/07/16 12:47:05;;;;;;;8.75;2.58;;;21.10;87.40;;;;;;4917747;29;20457;-78